Time;durP1;ratioP1;P1;durP2;ratioP2;P2;SDS_P1;SDS_P2;PMS_P1;PMS_P2;Temp;Humidity;BMP_temperature;BMP_pressure;BME280_temperature;BME280_humidity;BME280_pressure;Samples;Min_cycle;Max_cycle;Signal;HPM_P1;HPM_P2
2022/08/25 00:00:44;;;;;;;7.28;3.63;;;20.00;99.90;;;;;;4992667;28;20026;-84
2022/08/25 00:03:11;;;;;;;7.50;3.70;;;19.90;99.90;;;;;;4989225;28;20103;-84
2022/08/25 00:05:37;;;;;;;8.20;3.83;;;19.80;99.90;;;;;;4989414;28;20070;-84
2022/08/25 00:08:05;;;;;;;9.50;3.78;;;19.80;99.90;;;;;;4994793;28;20026;-84
2022/08/25 00:10:33;;;;;;;9.18;3.53;;;19.70;99.90;;;;;;4994892;28;20197;-84
2022/08/25 00:13:00;;;;;;;7.88;3.50;;;19.60;99.90;;;;;;4993027;28;20027;-84
2022/08/25 00:15:27;;;;;;;11.52;3.92;;;19.60;99.90;;;;;;4993394;28;20034;-84
2022/08/25 00:17:53;;;;;;;6.97;3.50;;;19.50;99.90;;;;;;4988833;28;20117;-84
2022/08/25 00:20:18;;;;;;;9.48;3.42;;;19.50;99.90;;;;;;4982299;28;20529;-84
2022/08/25 00:22:44;;;;;;;8.68;3.42;;;19.50;99.90;;;;;;4983514;28;20027;-84
2022/08/25 00:25:11;;;;;;;9.02;4.15;;;19.40;99.90;;;;;;4981823;28;20111;-84
2022/08/25 00:27:37;;;;;;;7.15;3.58;;;19.40;99.90;;;;;;4989258;28;20026;-84
2022/08/25 00:30:04;;;;;;;9.30;3.42;;;19.30;99.90;;;;;;4984106;28;20111;-83
2022/08/25 00:32:30;;;;;;;7.68;3.97;;;19.30;99.90;;;;;;4989894;28;20496;-84
2022/08/25 00:34:57;;;;;;;8.43;3.88;;;19.30;99.90;;;;;;4985863;28;20026;-85
2022/08/25 00:37:22;;;;;;;8.10;3.60;;;19.20;99.90;;;;;;4993967;28;20575;-84
2022/08/25 00:39:48;;;;;;;10.00;3.90;;;19.20;99.90;;;;;;4992340;28;20113;-84
2022/08/25 00:42:14;;;;;;;8.88;3.80;;;19.10;99.90;;;;;;4992977;28;20026;-84
2022/08/25 00:44:40;;;;;;;7.35;3.70;;;19.00;99.90;;;;;;4993131;28;20023;-83
2022/08/25 00:47:07;;;;;;;11.23;3.80;;;19.00;99.90;;;;;;4992796;28;20034;-84
2022/08/25 00:49:42;;;;;;;7.82;4.15;;;19.00;99.90;;;;;;4992619;28;20106;-84
2022/08/25 00:52:14;;;;;;;8.63;4.05;;;19.00;99.90;;;;;;4989900;28;20030;-84
2022/08/25 00:54:42;;;;;;;10.32;4.15;;;19.00;99.90;;;;;;4986724;28;20030;-84
2022/08/25 00:57:11;;;;;;;9.52;3.90;;;19.00;99.90;;;;;;4991041;28;20022;-83
2022/08/25 00:59:38;;;;;;;9.45;3.63;;;19.00;99.90;;;;;;4990142;28;20118;-83
2022/08/25 01:02:06;;;;;;;8.95;3.70;;;19.00;99.90;;;;;;4989737;28;20019;-83
2022/08/25 01:04:31;;;;;;;7.13;3.50;;;19.10;99.90;;;;;;4987334;28;20022;-83
2022/08/25 01:06:58;;;;;;;7.18;3.60;;;19.00;99.90;;;;;;4990979;28;20038;-83
2022/08/25 01:09:24;;;;;;;8.38;3.60;;;18.90;99.90;;;;;;4988592;28;20105;-83
2022/08/25 01:11:50;;;;;;;7.03;3.40;;;18.90;99.90;;;;;;4990704;28;20121;-83
2022/08/25 01:14:18;;;;;;;8.95;3.80;;;18.80;99.90;;;;;;4983526;28;20034;-82
2022/08/25 01:16:45;;;;;;;9.38;3.65;;;18.70;99.90;;;;;;4987846;28;20058;-83
2022/08/25 01:19:13;;;;;;;8.48;3.80;;;18.70;99.90;;;;;;4988945;28;20050;-83
2022/08/25 01:21:45;;;;;;;8.90;3.70;;;18.70;99.90;;;;;;4990740;28;20130;-83
2022/08/25 01:24:23;;;;;;;10.60;4.07;;;18.60;99.90;;;;;;4989927;28;20026;-83
2022/08/25 01:26:49;;;;;;;8.43;3.65;;;18.50;99.90;;;;;;4990619;28;20386;-83
2022/08/25 01:29:20;;;;;;;7.57;3.63;;;18.50;99.90;;;;;;4990898;28;20053;-83
2022/08/25 01:31:48;;;;;;;9.20;3.72;;;18.40;99.90;;;;;;4992394;28;20031;-83
2022/08/25 01:34:15;;;;;;;7.70;3.90;;;18.40;99.90;;;;;;4978879;28;20034;-83
2022/08/25 01:36:43;;;;;;;9.13;4.20;;;18.40;99.90;;;;;;4990009;28;20125;-83
2022/08/25 01:39:10;;;;;;;10.13;4.53;;;18.30;99.90;;;;;;4986378;28;20058;-83
2022/08/25 01:41:57;;;;;;;9.10;4.10;;;18.20;99.90;;;;;;4989507;28;20422;-83
2022/08/25 01:44:24;;;;;;;10.30;4.20;;;18.20;99.90;;;;;;4991275;28;20046;-83
2022/08/25 01:46:51;;;;;;;9.15;4.30;;;18.30;99.90;;;;;;4978258;28;20058;-83
2022/08/25 01:49:19;;;;;;;7.35;4.05;;;18.30;99.90;;;;;;4990930;28;20098;-83
2022/08/25 01:51:59;;;;;;;10.13;4.28;;;18.20;99.90;;;;;;5007537;28;20093;-83
2022/08/25 01:54:25;;;;;;;9.00;4.15;;;18.20;99.90;;;;;;4984549;28;20065;-83
2022/08/25 01:56:50;;;;;;;7.88;4.00;;;18.20;99.90;;;;;;4991336;28;20434;-83
2022/08/25 01:59:18;;;;;;;8.63;4.10;;;18.20;99.90;;;;;;4988695;28;20037;-82
2022/08/25 02:01:45;;;;;;;7.88;4.00;;;18.20;99.90;;;;;;4987157;28;20046;-83
2022/08/25 02:04:11;;;;;;;9.77;4.03;;;18.20;99.90;;;;;;4989271;28;20054;-83
2022/08/25 02:06:37;;;;;;;8.98;4.20;;;18.10;99.90;;;;;;4983202;28;20049;-83
2022/08/25 02:09:14;;;;;;;8.52;4.32;;;18.10;99.90;;;;;;4985228;28;20037;-83
2022/08/25 02:11:42;;;;;;;9.65;4.32;;;18.10;99.90;;;;;;4985367;28;20029;-83
2022/08/25 02:14:10;;;;;;;11.77;4.28;;;18.00;99.90;;;;;;4987189;28;20125;-83
2022/08/25 02:16:37;;;;;;;10.30;4.38;;;17.80;99.90;;;;;;4993459;28;20082;-83
2022/08/25 02:19:05;;;;;;;8.82;4.25;;;17.70;99.90;;;;;;4994565;28;20462;-83
2022/08/25 02:21:31;;;;;;;8.65;4.20;;;17.70;99.90;;;;;;4991729;28;20026;-83
2022/08/25 02:23:57;;;;;;;11.70;4.60;;;17.60;99.90;;;;;;4993434;28;20117;-83
2022/08/25 02:26:24;;;;;;;12.55;4.78;;;17.50;99.90;;;;;;4990222;28;20056;-83
2022/08/25 02:28:51;;;;;;;9.80;4.38;;;17.50;99.90;;;;;;4995545;28;20026;-83
2022/08/25 02:31:18;;;;;;;7.97;4.30;;;17.50;99.90;;;;;;4992596;28;20076;-83
2022/08/25 02:33:44;;;;;;;10.18;4.40;;;17.50;99.90;;;;;;4993743;28;20030;-83
2022/08/25 02:36:10;;;;;;;8.93;4.03;;;17.50;99.90;;;;;;4990180;28;20114;-83
2022/08/25 02:38:36;;;;;;;11.63;4.47;;;17.50;99.90;;;;;;4990266;28;20086;-83
2022/08/25 02:41:11;;;;;;;10.10;4.45;;;17.40;99.90;;;;;;4988828;28;20062;-83
2022/08/25 02:43:37;;;;;;;9.00;4.35;;;17.40;99.90;;;;;;4990648;28;20113;-83
2022/08/25 02:46:03;;;;;;;9.40;4.20;;;17.30;99.90;;;;;;4989245;28;20034;-83
2022/08/25 02:48:29;;;;;;;9.85;4.47;;;17.30;99.90;;;;;;4987125;28;20030;-83
2022/08/25 02:50:59;;;;;;;10.75;4.38;;;17.20;99.90;;;;;;4983790;28;20185;-82
2022/08/25 02:53:26;;;;;;;9.50;4.60;;;17.20;99.90;;;;;;4991428;28;20030;-83
2022/08/25 02:55:52;;;;;;;10.43;4.20;;;17.20;99.90;;;;;;4989519;28;20430;-83
2022/08/25 02:58:18;;;;;;;9.82;4.50;;;17.20;99.90;;;;;;4989591;28;20031;-82
2022/08/25 03:00:44;;;;;;;8.40;4.38;;;17.20;99.90;;;;;;4990336;28;20026;-82
2022/08/25 03:03:10;;;;;;;9.95;4.30;;;17.20;99.90;;;;;;4990557;28;20479;-82
2022/08/25 03:05:36;;;;;;;8.45;4.30;;;17.30;99.90;;;;;;4990623;28;20050;-82
2022/08/25 03:08:03;;;;;;;8.52;4.60;;;17.20;99.90;;;;;;4987224;28;20030;-82
2022/08/25 03:10:29;;;;;;;8.73;4.53;;;17.20;99.90;;;;;;4991823;28;20032;-82
2022/08/25 03:12:55;;;;;;;8.95;4.50;;;17.10;99.90;;;;;;4991836;28;20061;-82
2022/08/25 03:15:20;;;;;;;10.55;4.35;;;17.10;99.90;;;;;;4987804;28;20064;-82
2022/08/25 03:17:50;;;;;;;8.95;4.72;;;17.10;99.90;;;;;;4984450;28;21346;-83
2022/08/25 03:20:16;;;;;;;15.83;4.77;;;17.20;99.90;;;;;;4987994;28;20058;-82
2022/08/25 03:22:42;;;;;;;10.57;4.43;;;17.30;99.90;;;;;;4985931;28;20125;-82
2022/08/25 03:28:05;;;;;;;9.35;4.25;;;17.40;99.90;;;;;;4971399;28;20530;-82
2022/08/25 03:30:30;;;;;;;9.10;4.65;;;17.50;99.90;;;;;;4991355;28;20058;-82
2022/08/25 03:32:56;;;;;;;8.70;4.63;;;17.40;99.90;;;;;;4989107;28;20467;-82
2022/08/25 03:35:22;;;;;;;10.32;4.47;;;17.40;99.90;;;;;;4985030;28;20058;-82
2022/08/25 03:37:48;;;;;;;10.27;4.38;;;17.30;99.90;;;;;;4991332;28;20068;-82
2022/08/25 03:40:18;;;;;;;11.48;5.22;;;17.20;99.90;;;;;;4988652;28;20023;-82
2022/08/25 03:42:45;;;;;;;10.30;4.40;;;17.10;99.90;;;;;;4991052;28;20474;-82
2022/08/25 03:45:13;;;;;;;11.70;4.95;;;17.10;99.90;;;;;;4985385;28;20023;-82
2022/08/25 03:47:39;;;;;;;11.45;5.25;;;17.10;99.90;;;;;;5000751;28;20117;-82
2022/08/25 03:50:07;;;;;;;10.45;5.55;;;17.00;99.90;;;;;;4985675;28;20019;-82
2022/08/25 03:52:33;;;;;;;11.77;4.72;;;16.90;99.90;;;;;;4989591;28;20026;-82
2022/08/25 03:54:59;;;;;;;8.50;5.00;;;16.90;99.90;;;;;;5000086;28;20474;-83
2022/08/25 03:57:25;;;;;;;10.23;5.00;;;16.90;99.90;;;;;;4990832;28;20022;-83
2022/08/25 03:59:51;;;;;;;10.25;5.20;;;16.90;99.90;;;;;;4983200;28;20123;-83
2022/08/25 04:02:17;;;;;;;10.93;5.10;;;16.80;99.90;;;;;;4988966;28;20034;-83
2022/08/25 04:04:43;;;;;;;9.75;4.82;;;16.70;99.90;;;;;;4988610;28;20037;-83
2022/08/25 04:07:10;;;;;;;10.40;5.03;;;16.70;99.90;;;;;;5000529;28;20391;-81
2022/08/25 04:09:36;;;;;;;11.60;5.20;;;16.60;99.90;;;;;;4992343;28;20030;-81
2022/08/25 04:12:01;;;;;;;11.02;5.15;;;16.60;99.90;;;;;;4989853;28;20026;-80
2022/08/25 04:14:27;;;;;;;9.77;5.35;;;16.60;99.90;;;;;;4988085;28;20026;-80
2022/08/25 04:16:53;;;;;;;12.20;5.72;;;16.50;99.90;;;;;;4991398;28;20034;-81
2022/08/25 04:19:19;;;;;;;14.23;5.25;;;16.50;99.90;;;;;;4990395;28;20026;-81
2022/08/25 04:21:45;;;;;;;10.20;4.95;;;16.50;99.90;;;;;;4990262;28;20453;-80
2022/08/25 04:24:12;;;;;;;11.13;4.90;;;16.50;99.90;;;;;;4989832;28;20057;-81
2022/08/25 04:26:41;;;;;;;13.43;5.57;;;16.50;99.90;;;;;;4990145;28;20521;-81
2022/08/25 04:29:09;;;;;;;11.55;5.78;;;16.40;99.90;;;;;;4989311;28;20033;-81
2022/08/25 04:31:35;;;;;;;12.95;6.05;;;16.40;99.90;;;;;;4991170;28;20038;-81
2022/08/25 04:34:02;;;;;;;10.30;5.45;;;16.40;99.90;;;;;;4986192;28;20026;-81
2022/08/25 04:36:28;;;;;;;11.40;5.75;;;16.50;99.90;;;;;;4984428;28;20022;-81
2022/08/25 04:38:54;;;;;;;10.43;5.65;;;16.40;99.90;;;;;;5000253;28;20062;-81
2022/08/25 04:41:21;;;;;;;10.38;5.38;;;16.50;99.90;;;;;;4997057;28;20050;-81
2022/08/25 04:43:47;;;;;;;10.77;5.53;;;16.40;99.90;;;;;;4983041;28;20030;-81
2022/08/25 04:46:22;;;;;;;9.50;5.45;;;16.30;99.90;;;;;;4989171;28;20080;-81
2022/08/25 04:48:50;;;;;;;13.55;6.00;;;16.40;99.90;;;;;;4986702;28;20665;-81
2022/08/25 04:51:19;;;;;;;12.18;5.38;;;16.40;99.90;;;;;;4987644;28;20061;-81
2022/08/25 04:53:45;;;;;;;10.00;5.20;;;16.50;99.90;;;;;;4990742;28;20031;-81
2022/08/25 04:56:14;;;;;;;11.50;5.40;;;16.60;99.90;;;;;;4991904;28;20030;-81
2022/08/25 04:58:40;;;;;;;9.55;5.28;;;16.70;99.90;;;;;;4990291;28;20034;-81
2022/08/25 05:01:14;;;;;;;12.95;5.50;;;16.70;99.90;;;;;;4984961;28;20038;-81
2022/08/25 05:03:40;;;;;;;11.18;5.00;;;16.80;99.90;;;;;;4986891;28;20146;-81
2022/08/25 05:06:06;;;;;;;9.13;5.13;;;16.90;99.90;;;;;;4971486;28;20058;-81
2022/08/25 05:08:33;;;;;;;10.25;5.38;;;16.90;99.90;;;;;;4988270;28;20042;-81
2022/08/25 05:11:03;;;;;;;10.07;5.60;;;17.00;99.90;;;;;;4988725;28;20031;-81
2022/08/25 05:13:29;;;;;;;11.65;5.80;;;17.00;99.90;;;;;;4983596;28;20026;-80
2022/08/25 05:15:56;;;;;;;12.32;5.20;;;17.10;99.90;;;;;;4984940;28;20014;-81
2022/08/25 05:18:24;;;;;;;11.13;5.50;;;17.10;99.90;;;;;;4987426;28;20154;-82
2022/08/25 05:20:52;;;;;;;9.77;5.70;;;17.20;99.90;;;;;;4990080;28;20076;-81
2022/08/25 05:23:19;;;;;;;12.52;5.22;;;17.20;99.90;;;;;;4997316;28;20533;-81
2022/08/25 05:25:45;;;;;;;11.45;5.65;;;17.30;99.90;;;;;;4989466;28;20027;-81
2022/08/25 05:28:11;;;;;;;12.30;5.93;;;17.40;99.90;;;;;;4986164;28;20070;-80
2022/08/25 05:30:39;;;;;;;12.32;5.97;;;17.50;99.90;;;;;;4987715;28;20152;-81
2022/08/25 05:33:05;;;;;;;14.93;5.90;;;17.60;99.90;;;;;;4989076;28;20041;-81
2022/08/25 05:35:31;;;;;;;10.57;5.65;;;17.70;99.90;;;;;;4988187;28;20030;-81
2022/08/25 05:37:57;;;;;;;13.48;5.63;;;17.80;99.90;;;;;;4987385;28;20042;-81
2022/08/25 05:40:23;;;;;;;11.23;5.72;;;17.90;99.90;;;;;;5004435;28;20130;-81
2022/08/25 05:42:50;;;;;;;13.77;6.20;;;18.00;99.90;;;;;;4975547;28;20027;-81
2022/08/25 05:45:16;;;;;;;11.50;5.50;;;18.10;99.90;;;;;;4993725;28;20145;-81
2022/08/25 05:47:43;;;;;;;11.38;5.30;;;18.20;99.90;;;;;;4988476;28;20049;-81
2022/08/25 05:50:09;;;;;;;10.68;5.60;;;18.40;99.90;;;;;;4992783;28;20026;-82
2022/08/25 05:52:35;;;;;;;15.32;5.70;;;18.50;99.90;;;;;;4995557;28;20634;-81
2022/08/25 05:55:00;;;;;;;20.10;5.90;;;18.50;99.90;;;;;;4995049;28;20050;-81
2022/08/25 05:57:26;;;;;;;11.15;5.72;;;18.70;99.90;;;;;;4989662;28;20034;-82
2022/08/25 05:59:52;;;;;;;12.98;6.13;;;18.80;99.90;;;;;;4985256;28;20769;-81
2022/08/25 06:05:03;;;;;;;15.27;5.88;;;19.00;99.90;;;;;;4990444;28;20502;-81
2022/08/25 06:07:29;;;;;;;11.32;5.45;;;19.20;99.90;;;;;;4992455;28;20121;-81
2022/08/25 06:09:55;;;;;;;13.10;5.38;;;19.30;99.90;;;;;;4987082;28;20061;-81
2022/08/25 06:12:20;;;;;;;10.82;5.57;;;19.40;99.90;;;;;;4987907;28;20607;-82
2022/08/25 06:14:48;;;;;;;10.02;5.70;;;19.50;99.90;;;;;;4988451;28;20057;-81
2022/08/25 06:17:15;;;;;;;13.30;5.70;;;19.60;99.90;;;;;;4993988;28;20030;-81
2022/08/25 06:19:40;;;;;;;11.98;5.60;;;19.80;99.90;;;;;;4992479;28;20034;-82
2022/08/25 06:22:06;;;;;;;12.02;5.47;;;19.90;99.90;;;;;;4991189;28;20555;-81
2022/08/25 06:24:32;;;;;;;15.88;5.75;;;20.00;99.90;;;;;;4993848;28;20447;-81
2022/08/25 06:26:59;;;;;;;11.57;5.88;;;20.30;99.90;;;;;;4990870;28;20707;-81
2022/08/25 06:29:25;;;;;;;14.27;5.28;;;20.40;99.90;;;;;;4989706;28;20121;-82
2022/08/25 06:31:51;;;;;;;10.48;5.00;;;20.60;99.90;;;;;;4991786;28;20427;-81
2022/08/25 06:34:17;;;;;;;15.57;5.75;;;20.80;99.90;;;;;;4986563;28;20032;-81
2022/08/25 06:36:43;;;;;;;10.77;5.68;;;21.00;99.90;;;;;;4990436;28;20577;-82
2022/08/25 06:39:11;;;;;;;11.65;5.07;;;21.10;99.90;;;;;;4986364;28;20022;-81
2022/08/25 06:41:37;;;;;;;14.27;6.22;;;21.20;99.90;;;;;;4988532;28;20122;-82
2022/08/25 06:44:03;;;;;;;14.50;5.28;;;21.30;99.90;;;;;;4988268;28;20033;-81
2022/08/25 06:46:29;;;;;;;11.35;5.25;;;21.40;99.90;;;;;;4991645;28;20128;-82
2022/08/25 06:48:56;;;;;;;11.88;4.85;;;21.50;99.90;;;;;;4991540;28;20034;-81
2022/08/25 06:51:24;;;;;;;13.02;5.10;;;21.40;99.90;;;;;;4976596;28;20030;-81
2022/08/25 06:53:51;;;;;;;12.80;5.43;;;21.70;99.90;;;;;;4989883;28;20058;-81
2022/08/25 06:56:19;;;;;;;10.77;5.43;;;21.80;99.90;;;;;;5006458;28;20042;-81
2022/08/25 06:58:46;;;;;;;15.00;5.75;;;21.90;99.90;;;;;;4996572;28;20037;-81
2022/08/25 07:01:20;;;;;;;14.50;5.18;;;22.10;99.90;;;;;;4995687;28;20026;-81
2022/08/25 07:03:47;;;;;;;10.18;4.93;;;22.20;99.90;;;;;;4995521;28;20438;-81
2022/08/25 07:06:13;;;;;;;10.82;5.13;;;22.40;99.90;;;;;;4995136;28;20480;-81
2022/08/25 07:08:39;;;;;;;13.05;5.10;;;22.50;99.90;;;;;;4995655;28;20072;-82
2022/08/25 07:11:09;;;;;;;11.02;5.38;;;22.60;99.90;;;;;;4999439;28;20022;-81
2022/08/25 07:13:35;;;;;;;11.13;5.20;;;22.80;99.90;;;;;;4992465;28;20035;-81
2022/08/25 07:16:05;;;;;;;10.45;5.30;;;22.90;99.90;;;;;;4993193;28;20023;-81
2022/08/25 07:18:31;;;;;;;;;;;23.10;99.90;;;;;;4993560;28;20098;-82
2022/08/25 07:20:57;;;;;;;10.07;4.90;;;23.20;99.90;;;;;;4996068;28;20029;-82
2022/08/25 07:23:23;;;;;;;14.18;5.50;;;23.40;99.90;;;;;;4997230;28;20479;-81
2022/08/25 07:25:49;;;;;;;10.88;5.70;;;23.50;99.90;;;;;;4995432;28;20026;-81
2022/08/25 07:28:16;;;;;;;12.10;5.30;;;23.70;99.90;;;;;;4995274;28;20023;-81
2022/08/25 07:30:42;;;;;;;10.30;5.43;;;23.80;99.90;;;;;;4993212;28;20046;-82
2022/08/25 07:33:08;;;;;;;10.27;4.82;;;23.80;99.90;;;;;;4992009;28;20037;-81
2022/08/25 07:35:35;;;;;;;10.65;5.07;;;24.00;99.90;;;;;;4994995;28;20066;-81
2022/08/25 07:38:04;;;;;;;12.20;5.10;;;24.10;99.90;;;;;;4993197;28;20043;-81
2022/08/25 07:40:35;;;;;;;10.02;5.10;;;24.30;99.90;;;;;;4993719;28;20598;-83
2022/08/25 07:43:04;;;;;;;10.60;5.07;;;24.40;99.90;;;;;;4993677;28;20023;-82
2022/08/25 07:45:33;;;;;;;10.65;5.10;;;24.50;99.90;;;;;;4994212;28;20031;-82
2022/08/25 07:48:04;;;;;;;11.73;5.57;;;24.70;99.90;;;;;;4988963;28;20031;-82
2022/08/25 07:50:30;;;;;;;9.80;4.93;;;24.80;99.90;;;;;;4992592;28;20030;-82
2022/08/25 07:52:57;;;;;;;9.32;5.25;;;24.90;99.90;;;;;;4995085;28;20030;-82
2022/08/25 07:55:24;;;;;;;10.75;5.68;;;25.00;99.90;;;;;;4998263;28;20027;-82
2022/08/25 07:57:51;;;;;;;10.77;4.90;;;25.10;99.90;;;;;;4997075;28;20628;-82
2022/08/25 08:00:19;;;;;;;12.05;5.07;;;25.30;99.90;;;;;;4989815;28;20776;-82
2022/08/25 08:02:45;;;;;;;10.95;5.10;;;25.40;99.90;;;;;;4993847;28;20089;-82
2022/08/25 08:05:12;;;;;;;13.75;5.53;;;25.60;99.90;;;;;;4994534;28;20038;-82
2022/08/25 08:07:38;;;;;;;12.10;5.28;;;25.70;99.90;;;;;;4993379;28;20058;-82
2022/08/25 08:10:06;;;;;;;10.23;5.30;;;25.70;99.90;;;;;;4999959;28;20069;-82
2022/08/25 08:12:33;;;;;;;13.18;5.38;;;25.80;99.90;;;;;;4986335;28;20049;-82
2022/08/25 08:14:59;;;;;;;13.68;5.20;;;25.90;99.90;;;;;;4990891;28;20404;-82
2022/08/25 08:17:25;;;;;;;12.82;5.38;;;26.00;99.90;;;;;;4994113;28;20511;-82
2022/08/25 08:19:51;;;;;;;9.68;5.18;;;26.20;99.90;;;;;;4990844;28;20038;-82
2022/08/25 08:22:18;;;;;;;10.73;5.40;;;26.40;99.90;;;;;;4995792;28;20027;-82
2022/08/25 08:24:45;;;;;;;11.63;5.28;;;26.70;99.90;;;;;;4992167;28;20567;-82
2022/08/25 08:27:12;;;;;;;9.63;4.60;;;27.40;99.40;;;;;;4994013;28;20022;-82
2022/08/25 08:29:40;;;;;;;9.00;4.53;;;28.30;97.80;;;;;;4991995;28;20031;-82
2022/08/25 08:32:08;;;;;;;9.23;4.35;;;29.20;95.70;;;;;;4985502;28;20054;-82
2022/08/25 08:34:35;;;;;;;8.73;4.83;;;30.00;93.60;;;;;;4996479;28;20327;-83
2022/08/25 08:37:01;;;;;;;13.35;4.85;;;30.60;93.50;;;;;;4995495;28;20409;-82
2022/08/25 08:39:28;;;;;;;10.05;4.72;;;30.70;91.70;;;;;;4988842;28;20022;-82
2022/08/25 08:42:21;;;;;;;8.57;4.13;;;30.80;91.40;;;;;;4999354;28;20065;-82
2022/08/25 08:45:07;;;;;;;8.07;4.55;;;31.00;91.20;;;;;;4994179;28;20045;-83
2022/08/25 08:47:41;;;;;;;8.82;4.38;;;31.30;90.70;;;;;;4990553;28;20652;-82
2022/08/25 08:50:44;;;;;;;9.00;4.20;;;31.90;89.40;;;;;;5009083;28;20062;-83
2022/08/25 08:53:32;;;;;;;10.73;4.90;;;32.80;87.20;;;;;;5005791;28;20058;-83
2022/08/25 08:56:05;;;;;;;10.32;5.05;;;32.20;87.20;;;;;;4995106;28;20022;-82
2022/08/25 08:58:42;;;;;;;11.55;4.80;;;31.50;90.00;;;;;;4994883;28;20030;-83
2022/08/25 09:01:14;;;;;;;10.10;4.70;;;31.40;89.10;;;;;;5006685;28;20595;-82
2022/08/25 09:03:43;;;;;;;9.27;4.90;;;31.50;88.20;;;;;;4990176;28;20117;-83
2022/08/25 09:06:24;;;;;;;9.70;4.00;;;32.00;87.30;;;;;;4991600;28;20121;-82
2022/08/25 09:08:53;;;;;;;8.38;4.40;;;32.70;84.50;;;;;;4987816;28;20034;-82
2022/08/25 09:11:45;;;;;;;9.23;4.43;;;33.70;82.70;;;;;;4990228;28;20026;-83
2022/08/25 09:14:32;;;;;;;10.18;4.07;;;33.90;81.60;;;;;;4990694;28;20033;-82
2022/08/25 09:17:42;;;;;;;9.30;4.88;;;33.70;82.90;;;;;;4984383;28;20109;-82
2022/08/25 09:20:46;;;;;;;10.07;3.90;;;33.40;81.50;;;;;;5023098;28;20049;-82
2022/08/25 09:23:33;;;;;;;9.52;4.22;;;33.60;80.60;;;;;;5005988;28;20117;-82
2022/08/25 09:26:37;;;;;;;7.57;4.05;;;34.30;79.70;;;;;;5004758;28;20144;-82
2022/08/25 09:29:26;;;;;;;8.18;4.30;;;34.90;78.10;;;;;;4936640;29;20043;-82
2022/08/25 09:32:21;;;;;;;7.43;3.97;;;35.00;77.10;;;;;;4901180;29;20039;-82
2022/08/25 09:34:48;;;;;;;7.82;3.88;;;34.80;76.60;;;;;;4933134;29;20083;-82
2022/08/25 09:37:22;;;;;;;7.40;4.10;;;35.00;76.00;;;;;;4927554;29;20405;-82
2022/08/25 09:39:56;;;;;;;7.43;4.35;;;35.00;76.40;;;;;;4878304;29;20075;-82
2022/08/25 09:42:41;;;;;;;10.48;4.25;;;34.80;75.90;;;;;;4880891;29;20068;-82
2022/08/25 09:45:13;;;;;;;8.55;4.30;;;34.80;74.80;;;;;;4885065;29;20091;-82
2022/08/25 09:48:09;;;;;;;8.13;4.13;;;35.30;75.10;;;;;;4865794;29;20095;-82
2022/08/25 09:50:54;;;;;;;6.70;2.97;;;35.70;73.20;;;;;;4883490;29;20044;-82
2022/08/25 09:53:28;;;;;;;7.72;3.72;;;35.70;73.00;;;;;;4875010;29;20036;-82
2022/08/25 09:56:11;;;;;;;7.72;4.03;;;35.80;71.30;;;;;;4898822;29;20052;-82
2022/08/25 09:58:40;;;;;;;7.82;4.07;;;35.60;71.60;;;;;;4884639;29;20045;-82
2022/08/25 10:01:25;;;;;;;9.63;3.70;;;35.30;71.30;;;;;;4858546;29;20745;-81
2022/08/25 10:03:55;;;;;;;9.10;3.90;;;35.00;72.70;;;;;;4834340;29;20038;-81
2022/08/25 10:06:30;;;;;;;6.93;3.65;;;34.70;72.00;;;;;;4861534;29;20036;-81
2022/08/25 10:09:00;;;;;;;8.43;3.75;;;35.00;71.40;;;;;;4879184;29;20059;-81
2022/08/25 10:11:37;;;;;;;10.48;3.88;;;35.50;71.40;;;;;;4895627;29;20615;-81
2022/08/25 10:14:43;;;;;;;7.57;3.65;;;36.00;70.70;;;;;;4889983;29;20051;-82
2022/08/25 10:17:32;;;;;;;8.93;3.58;;;36.20;69.30;;;;;;4917569;29;20416;-82
2022/08/25 10:20:30;;;;;;;7.85;3.80;;;36.40;69.10;;;;;;4900033;29;20055;-81
2022/08/25 10:23:17;;;;;;;9.93;4.00;;;36.90;68.10;;;;;;4893451;29;20041;-81
2022/08/25 10:25:48;;;;;;;8.35;3.70;;;36.30;68.80;;;;;;4895102;29;20028;-83
2022/08/25 10:28:25;;;;;;;8.15;4.22;;;36.50;67.10;;;;;;4887732;29;20037;-83
2022/08/25 10:31:18;;;;;;;8.43;4.20;;;36.50;67.30;;;;;;4889109;29;20043;-83
2022/08/25 10:34:04;;;;;;;10.27;4.22;;;36.20;68.40;;;;;;4914165;28;20028;-83
2022/08/25 10:36:45;;;;;;;11.70;3.70;;;36.00;66.70;;;;;;4951735;28;20031;-83
2022/08/25 10:39:41;;;;;;;9.43;4.00;;;36.40;67.90;;;;;;4963270;28;20102;-83
2022/08/25 10:42:28;;;;;;;7.65;3.58;;;36.50;67.10;;;;;;4959951;28;20043;-83
2022/08/25 10:48:34;;;;;;;9.27;4.07;;;36.90;67.50;;;;;;4953988;28;20179;-83
2022/08/25 10:51:39;;;;;;;10.90;4.05;;;37.80;66.20;;;;;;4944357;28;20171;-82
2022/08/25 10:54:27;;;;;;;8.32;3.92;;;37.30;66.10;;;;;;4951530;28;20513;-83
2022/08/25 10:57:17;;;;;;;7.75;3.75;;;37.40;65.50;;;;;;4965133;28;20115;-83
2022/08/25 10:59:59;;;;;;;7.70;3.80;;;38.50;65.70;;;;;;4974870;28;20042;-83
2022/08/25 11:02:58;;;;;;;11.45;3.88;;;39.00;64.50;;;;;;5005496;28;20493;-83
2022/08/25 11:05:30;;;;;;;7.72;3.35;;;38.20;63.80;;;;;;4965490;28;20049;-82
2022/08/25 11:08:09;;;;;;;8.93;3.60;;;38.80;63.80;;;;;;4992215;28;20038;-83
2022/08/25 11:10:59;;;;;;;13.18;3.65;;;38.80;63.30;;;;;;4990207;28;20027;-83
2022/08/25 11:13:38;;;;;;;7.55;3.88;;;38.50;62.20;;;;;;4987359;28;20526;-83
2022/08/25 11:16:17;;;;;;;6.78;3.17;;;37.70;64.10;;;;;;4985366;28;20057;-83
2022/08/25 11:18:47;;;;;;;;;;;38.40;62.90;;;;;;4992217;28;20041;-83
2022/08/25 11:21:26;;;;;;;9.38;3.90;;;38.60;63.00;;;;;;4991380;28;19918;-83
2022/08/25 11:23:59;;;;;;;7.80;3.83;;;38.00;63.50;;;;;;4992315;28;20089;-84
2022/08/25 11:26:33;;;;;;;7.93;3.72;;;38.10;62.70;;;;;;4992493;28;20031;-83
2022/08/25 11:29:13;;;;;;;7.85;3.88;;;39.00;62.80;;;;;;4993692;28;20026;-83
2022/08/25 11:31:44;;;;;;;9.68;3.85;;;39.60;61.00;;;;;;4990315;28;20520;-83
2022/08/25 11:34:14;;;;;;;7.72;3.50;;;40.00;61.00;;;;;;4993503;28;20022;-83
2022/08/25 11:36:43;;;;;;;8.38;3.97;;;40.40;59.60;;;;;;4993604;28;20038;-83
2022/08/25 11:39:29;;;;;;;7.38;3.72;;;39.90;60.80;;;;;;4993110;28;20545;-83
2022/08/25 11:42:03;;;;;;;7.03;3.85;;;39.80;60.50;;;;;;4961183;28;20045;-83
2022/08/25 11:45:02;;;;;;;10.20;3.85;;;39.40;61.20;;;;;;4989354;28;20023;-83
2022/08/25 11:47:37;;;;;;;7.68;3.65;;;39.80;59.40;;;;;;5001038;28;20030;-83
2022/08/25 11:50:22;;;;;;;7.88;3.50;;;40.50;58.50;;;;;;4988029;28;20201;-84
2022/08/25 11:53:10;;;;;;;7.25;3.42;;;40.00;57.70;;;;;;4985267;28;20027;-84
2022/08/25 11:55:52;;;;;;;8.93;3.80;;;40.40;57.90;;;;;;4991289;28;20037;-83
2022/08/25 11:58:27;;;;;;;10.43;3.75;;;38.00;59.90;;;;;;4992389;28;20113;-83
2022/08/25 12:00:54;;;;;;;8.40;3.85;;;39.80;60.00;;;;;;4990775;28;20479;-83
2022/08/25 12:03:35;;;;;;;9.23;3.80;;;40.10;58.10;;;;;;4980799;28;20036;-83
2022/08/25 12:06:22;;;;;;;7.25;3.70;;;39.70;59.10;;;;;;4992377;28;20093;-83
2022/08/25 12:08:57;;;;;;;6.68;3.17;;;39.90;58.60;;;;;;4984774;28;20027;-83
2022/08/25 12:11:38;;;;;;;8.68;3.50;;;40.70;58.00;;;;;;5002071;28;20030;-83
2022/08/25 12:14:19;;;;;;;6.57;3.47;;;40.70;58.30;;;;;;4991367;28;20104;-83
2022/08/25 12:16:52;;;;;;;6.72;3.45;;;40.90;57.20;;;;;;5011385;28;20031;-83
2022/08/25 12:19:48;;;;;;;7.60;3.22;;;40.60;57.20;;;;;;4989517;28;20032;-83
2022/08/25 12:22:14;;;;;;;9.20;3.65;;;41.60;57.70;;;;;;5003545;28;20562;-83
2022/08/25 12:24:43;;;;;;;7.97;3.40;;;41.90;56.50;;;;;;4991269;28;20033;-83
2022/08/25 12:27:31;;;;;;;6.95;3.60;;;40.90;56.80;;;;;;4982712;28;20405;-83
2022/08/25 12:30:13;;;;;;;9.05;3.58;;;40.00;57.50;;;;;;4997016;28;20432;-83
2022/08/25 12:32:45;;;;;;;7.30;3.47;;;39.70;57.30;;;;;;4989853;28;20108;-83
2022/08/25 12:35:16;;;;;;;7.25;3.13;;;39.90;56.50;;;;;;4989380;28;20495;-83
2022/08/25 12:38:03;;;;;;;7.20;3.30;;;41.60;56.40;;;;;;4988410;28;20058;-82
2022/08/25 12:40:49;;;;;;;6.97;3.40;;;41.70;56.50;;;;;;4989502;28;20101;-83
2022/08/25 12:43:24;;;;;;;8.60;3.60;;;41.30;55.80;;;;;;4991320;28;20505;-83
2022/08/25 12:45:52;;;;;;;9.57;3.50;;;40.90;56.00;;;;;;5005097;28;20029;-83
2022/08/25 12:48:26;;;;;;;7.88;3.25;;;41.30;54.70;;;;;;4987592;28;20053;-82
2022/08/25 12:50:56;;;;;;;8.07;3.20;;;38.30;56.30;;;;;;4991482;28;20426;-83
2022/08/25 12:53:37;;;;;;;9.65;3.30;;;40.00;55.00;;;;;;4991206;28;20030;-83
2022/08/25 12:56:22;;;;;;;8.18;3.30;;;41.30;54.00;;;;;;4986182;28;20026;-83
2022/08/25 12:59:29;;;;;;;15.15;3.85;;;41.60;53.70;;;;;;4986665;28;20030;-83
2022/08/25 13:02:01;;;;;;;7.53;3.40;;;42.00;53.70;;;;;;4977397;28;20038;-83
2022/08/25 13:05:00;;;;;;;6.90;3.10;;;41.90;53.70;;;;;;5004885;28;20030;-83
2022/08/25 13:07:27;;;;;;;;;;;40.10;55.40;;;;;;4989138;28;20073;-83
2022/08/25 13:10:23;;;;;;;9.57;3.47;;;36.90;57.10;;;;;;5001394;28;19910;-83
2022/08/25 13:13:10;;;;;;;6.40;3.20;;;35.50;58.80;;;;;;4988327;28;20511;-83
2022/08/25 13:15:40;;;;;;;9.23;3.72;;;36.80;57.00;;;;;;4982793;28;20097;-83